createdAt,value
2017-07-21T00:00:07.421Z,1017.80
2017-07-21T00:01:08.061Z,1017.87
2017-07-21T00:02:08.693Z,1017.85
2017-07-21T00:03:09.330Z,1017.82
2017-07-21T00:04:09.967Z,1017.79
2017-07-21T00:05:10.608Z,1017.85
2017-07-21T00:06:11.240Z,1017.83
2017-07-21T00:07:11.882Z,1017.77
2017-07-21T00:08:12.716Z,1017.73
2017-07-21T00:09:13.357Z,1017.71
2017-07-21T00:10:13.990Z,1017.82
2017-07-21T00:11:14.626Z,1017.68
2017-07-21T00:12:15.263Z,1017.64
2017-07-21T00:13:15.897Z,1017.64
2017-07-21T00:14:16.539Z,1017.60
2017-07-21T00:15:17.170Z,1017.58
2017-07-21T00:16:18.006Z,1017.51
2017-07-21T00:17:18.595Z,1017.50
2017-07-21T00:18:19.230Z,1017.50
2017-07-21T00:19:19.869Z,1017.52
2017-07-21T00:20:20.503Z,1017.60
2017-07-21T00:21:21.143Z,1017.53
2017-07-21T00:22:21.787Z,1017.54
2017-07-21T00:23:22.422Z,1017.53
2017-07-21T00:24:23.070Z,1017.61
2017-07-21T00:25:23.904Z,1017.57
2017-07-21T00:26:24.535Z,1017.52
2017-07-21T00:27:25.172Z,1017.57
2017-07-21T00:28:25.806Z,1017.54
2017-07-21T00:29:26.451Z,1017.52
2017-07-21T00:30:27.135Z,1017.56
2017-07-21T00:31:27.768Z,1017.46
2017-07-21T00:32:28.411Z,1017.49
2017-07-21T00:33:29.189Z,1017.49
2017-07-21T00:34:29.833Z,1017.47
2017-07-21T00:35:31.716Z,1017.53
2017-07-21T00:36:32.355Z,1017.47
2017-07-21T00:37:32.994Z,1017.49
2017-07-21T00:38:33.631Z,1017.52
2017-07-21T00:39:34.275Z,1017.55
2017-07-21T00:40:34.963Z,1017.45
2017-07-21T00:41:35.803Z,1017.46
2017-07-21T00:42:36.441Z,1017.50
2017-07-21T00:43:37.079Z,1017.50
2017-07-21T00:44:37.714Z,1017.57
2017-07-21T00:45:38.354Z,1017.44
2017-07-21T00:46:38.991Z,1017.48
2017-07-21T00:47:39.685Z,1017.48
2017-07-21T00:48:40.315Z,1017.42
2017-07-21T00:49:41.100Z,1017.42
2017-07-21T00:50:41.736Z,1017.41
2017-07-21T00:51:42.373Z,1017.41
2017-07-21T00:52:43.011Z,1017.33
2017-07-21T00:53:43.704Z,1017.35
2017-07-21T00:54:44.338Z,1017.43
2017-07-21T00:55:44.972Z,1017.34
2017-07-21T00:56:45.608Z,1017.36
2017-07-21T00:57:46.242Z,1017.36
2017-07-21T00:58:47.082Z,1017.33
2017-07-21T00:59:47.720Z,1017.34
2017-07-21T01:00:48.360Z,1017.43
2017-07-21T01:01:48.989Z,1017.34
2017-07-21T01:02:49.626Z,1017.44
2017-07-21T01:03:50.267Z,1017.38
2017-07-21T01:04:50.905Z,1017.46
2017-07-21T01:05:51.542Z,1017.39
2017-07-21T01:06:52.329Z,1017.48
2017-07-21T01:07:52.964Z,1017.41
2017-07-21T01:08:53.599Z,1017.38
2017-07-21T01:09:54.235Z,1017.37
2017-07-21T01:10:54.872Z,1017.36
2017-07-21T01:11:55.513Z,1017.42
2017-07-21T01:12:56.101Z,1017.40
2017-07-21T01:13:56.735Z,1017.38
2017-07-21T01:14:57.570Z,1017.42
2017-07-21T01:15:58.211Z,1017.44
2017-07-21T01:16:58.843Z,1017.35
2017-07-21T01:17:59.479Z,1017.40
2017-07-21T01:19:00.121Z,1017.35
2017-07-21T01:20:00.753Z,1017.35
2017-07-21T01:21:01.395Z,1017.26
2017-07-21T01:22:02.030Z,1017.28
2017-07-21T01:23:27.798Z,1017.29
2017-07-21T01:25:13.342Z,1017.26
2017-07-21T01:52:46.514Z,1017.23
2017-07-21T01:54:48.784Z,1017.14
2017-07-21T02:01:34.422Z,1017.13
2017-07-21T02:03:18.557Z,1017.16
2017-07-21T02:04:19.191Z,1017.19
2017-07-21T02:05:20.033Z,1017.18
2017-07-21T02:06:33.402Z,1017.14
2017-07-21T02:07:34.037Z,1017.20
2017-07-21T02:08:34.670Z,1017.13
2017-07-21T02:09:35.313Z,1017.20
2017-07-21T02:10:35.944Z,1017.19
2017-07-21T02:11:36.590Z,1017.16
2017-07-21T02:12:37.223Z,1017.14
2017-07-21T02:13:38.068Z,1017.13
2017-07-21T02:14:38.695Z,1017.09
2017-07-21T02:15:39.331Z,1017.14
2017-07-21T02:16:39.971Z,1017.10
2017-07-21T02:17:40.609Z,1017.18
2017-07-21T02:18:41.246Z,1017.18
2017-07-21T02:19:41.883Z,1017.13
2017-07-21T02:20:42.523Z,1017.08
2017-07-21T02:21:43.355Z,1017.08
2017-07-21T02:22:43.988Z,1017.00
2017-07-21T02:23:44.632Z,1017.03
2017-07-21T02:24:45.261Z,1017.08
2017-07-21T02:25:45.901Z,1017.02
2017-07-21T02:26:46.534Z,1017.01
2017-07-21T02:27:47.174Z,1017.02
2017-07-21T02:28:47.812Z,1017.01
2017-07-21T02:29:48.599Z,1017.06
2017-07-21T02:30:49.233Z,1017.03
2017-07-21T02:31:49.872Z,1017.04
2017-07-21T02:32:50.506Z,1016.98
2017-07-21T02:33:51.143Z,1017.03
2017-07-21T02:34:51.775Z,1017.03
2017-07-21T02:35:52.408Z,1017.00
2017-07-21T02:36:53.044Z,1016.97
2017-07-21T02:37:53.889Z,1016.95
2017-07-21T02:38:54.526Z,1016.98
2017-07-21T02:39:55.163Z,1016.96
2017-07-21T02:40:55.815Z,1016.91
2017-07-21T02:41:56.445Z,1016.97
2017-07-21T02:42:57.073Z,1016.97
2017-07-21T02:43:57.716Z,1016.91
2017-07-21T02:44:58.347Z,1016.89
2017-07-21T02:45:59.132Z,1016.95
2017-07-21T02:46:59.767Z,1016.85
2017-07-21T02:48:00.408Z,1016.91
2017-07-21T02:49:01.040Z,1016.79
2017-07-21T02:50:01.681Z,1016.83
2017-07-21T02:51:02.312Z,1016.87
2017-07-21T02:52:02.947Z,1016.81
2017-07-21T02:53:03.583Z,1016.84
2017-07-21T02:54:04.218Z,1016.81
2017-07-21T02:55:05.053Z,1016.77
2017-07-21T02:56:05.691Z,1016.82
2017-07-21T02:57:06.331Z,1016.82
2017-07-21T02:58:06.970Z,1016.78
2017-07-21T02:59:07.606Z,1016.72
2017-07-21T03:00:08.240Z,1016.82
2017-07-21T03:01:08.873Z,1016.71
2017-07-21T03:02:09.509Z,1016.77
2017-07-21T03:03:10.355Z,1016.82
2017-07-21T03:04:10.989Z,1016.81
2017-07-21T03:05:11.622Z,1016.83
2017-07-21T03:06:12.269Z,1016.88
2017-07-21T03:07:12.902Z,1016.84
2017-07-21T03:08:13.535Z,1016.81
2017-07-21T03:09:14.168Z,1016.83
2017-07-21T03:10:14.805Z,1016.87
2017-07-21T03:11:15.652Z,1016.93
2017-07-21T03:12:16.277Z,1016.87
2017-07-21T03:13:16.915Z,1016.87
2017-07-21T03:14:17.548Z,1016.85
2017-07-21T03:15:18.184Z,1016.82
2017-07-21T03:16:18.827Z,1016.80
2017-07-21T03:17:19.515Z,1016.87
2017-07-21T03:18:20.152Z,1016.81
2017-07-21T03:19:20.984Z,1016.78
2017-07-21T03:20:21.624Z,1016.83
2017-07-21T03:21:22.271Z,1016.77
2017-07-21T03:22:22.905Z,1016.82
2017-07-21T03:23:23.544Z,1016.66
2017-07-21T03:24:24.180Z,1016.70
2017-07-21T03:25:24.819Z,1016.78
2017-07-21T03:26:25.453Z,1016.79
2017-07-21T03:27:26.085Z,1016.70
2017-07-21T03:28:26.881Z,1016.78
2017-07-21T03:29:27.510Z,1016.76
2017-07-21T03:30:28.145Z,1016.78
2017-07-21T03:31:28.786Z,1016.78
2017-07-21T03:32:29.416Z,1016.83
2017-07-21T03:33:30.058Z,1016.74
2017-07-21T03:34:30.688Z,1016.81
2017-07-21T03:35:31.331Z,1016.65
2017-07-21T03:36:32.262Z,1016.69
2017-07-21T03:37:32.897Z,1016.73
2017-07-21T03:38:33.532Z,1016.72
2017-07-21T03:39:34.167Z,1016.76
2017-07-21T03:40:34.799Z,1016.72
2017-07-21T03:41:35.440Z,1016.76
2017-07-21T03:42:36.078Z,1016.74
2017-07-21T03:43:36.716Z,1016.74
2017-07-21T03:44:37.547Z,1016.78
2017-07-21T03:45:38.193Z,1016.74
2017-07-21T03:46:38.825Z,1016.70
2017-07-21T03:47:39.460Z,1016.74
2017-07-21T03:48:40.093Z,1016.69
2017-07-21T03:49:40.729Z,1016.76
2017-07-21T03:50:41.364Z,1016.69
2017-07-21T03:51:41.999Z,1016.67
2017-07-21T03:52:42.836Z,1016.65
2017-07-21T03:53:43.477Z,1016.69
2017-07-21T03:54:44.117Z,1016.73
2017-07-21T03:55:44.746Z,1016.72
2017-07-21T03:56:45.381Z,1016.74
2017-07-21T03:57:46.021Z,1016.74
2017-07-21T03:58:46.654Z,1016.71
2017-07-21T03:59:47.289Z,1016.82
2017-07-21T04:00:48.075Z,1016.75
2017-07-21T04:01:48.718Z,1016.81
2017-07-21T04:02:49.348Z,1016.82
2017-07-21T04:03:49.997Z,1016.75
2017-07-21T04:04:50.620Z,1016.81
2017-07-21T04:05:51.262Z,1016.75
2017-07-21T04:06:51.894Z,1016.77
2017-07-21T04:07:52.535Z,1016.79
2017-07-21T04:08:53.173Z,1016.79
2017-07-21T04:09:54.004Z,1016.78
2017-07-21T04:10:54.644Z,1016.83
2017-07-21T04:11:55.284Z,1016.83
2017-07-21T04:12:55.919Z,1016.82
2017-07-21T04:13:56.553Z,1016.79
2017-07-21T04:14:57.188Z,1016.76
2017-07-21T04:15:57.824Z,1016.79
2017-07-21T04:16:58.459Z,1016.79
2017-07-21T04:17:59.143Z,1016.78
2017-07-21T04:18:59.779Z,1016.79
2017-07-21T04:20:00.425Z,1016.92
2017-07-21T04:21:01.056Z,1016.84
2017-07-21T04:22:01.698Z,1016.90
2017-07-21T04:23:02.387Z,1016.94
2017-07-21T04:24:03.033Z,1016.94
2017-07-21T04:25:03.665Z,1016.97
2017-07-21T04:26:04.550Z,1016.94
2017-07-21T04:27:05.191Z,1016.89
2017-07-21T04:28:05.827Z,1016.93
2017-07-21T04:29:06.465Z,1016.99
2017-07-21T04:30:07.100Z,1016.87
2017-07-21T04:31:07.743Z,1016.99
2017-07-21T04:32:08.377Z,1016.97
2017-07-21T04:33:09.009Z,1016.99
2017-07-21T04:34:09.847Z,1016.92
2017-07-21T04:35:10.479Z,1016.94
2017-07-21T04:36:11.122Z,1016.97
2017-07-21T04:37:11.754Z,1016.92
2017-07-21T04:38:12.394Z,1016.96
2017-07-21T04:39:13.027Z,1016.96
2017-07-21T04:40:13.668Z,1016.86
2017-07-21T04:41:14.301Z,1016.94
2017-07-21T04:42:14.935Z,1016.93
2017-07-21T04:43:15.769Z,1016.94
2017-07-21T04:44:16.404Z,1016.93
2017-07-21T04:45:17.040Z,1016.98
2017-07-21T04:46:17.680Z,1016.95
2017-07-21T04:47:18.319Z,1017.01
2017-07-21T04:48:18.957Z,1017.05
2017-07-21T04:49:19.598Z,1017.00
2017-07-21T04:50:20.230Z,1017.07
2017-07-21T04:51:21.069Z,1017.02
2017-07-21T04:52:21.701Z,1017.00
2017-07-21T04:53:22.338Z,1016.96
2017-07-21T04:54:22.973Z,1017.06
2017-07-21T04:55:23.615Z,1017.04
2017-07-21T04:56:24.244Z,1017.04
2017-07-21T04:57:24.886Z,1017.00
2017-07-21T04:58:25.519Z,1017.00
2017-07-21T04:59:26.358Z,1017.00
2017-07-21T05:00:26.991Z,1017.12
2017-07-21T05:01:27.628Z,1017.09
2017-07-21T05:02:28.264Z,1017.12
2017-07-21T05:03:28.896Z,1017.13
2017-07-21T05:04:29.539Z,1017.16
2017-07-21T05:05:30.173Z,1017.16
2017-07-21T05:06:30.804Z,1017.18
2017-07-21T05:07:31.640Z,1017.13
2017-07-21T05:08:32.274Z,1017.19
2017-07-21T05:09:32.912Z,1017.24
2017-07-21T05:10:33.545Z,1017.20
2017-07-21T05:11:34.185Z,1017.27
2017-07-21T05:12:34.827Z,1017.26
2017-07-21T05:13:35.463Z,1017.16
2017-07-21T05:14:36.105Z,1017.23
2017-07-21T05:15:36.943Z,1017.22
2017-07-21T05:16:37.576Z,1017.17
2017-07-21T05:17:38.262Z,1017.19
2017-07-21T05:18:38.896Z,1017.13
2017-07-21T05:19:39.531Z,1017.15
2017-07-21T05:20:40.172Z,1017.15
2017-07-21T05:21:40.804Z,1017.20
2017-07-21T05:22:41.439Z,1017.19
2017-07-21T05:23:42.073Z,1017.21
2017-07-21T05:24:42.913Z,1017.27
2017-07-21T05:25:43.548Z,1017.17
2017-07-21T05:26:44.192Z,1017.25
2017-07-21T05:27:44.826Z,1017.27
2017-07-21T05:28:45.463Z,1017.28
2017-07-21T05:29:46.103Z,1017.24
2017-07-21T05:30:46.738Z,1017.28
2017-07-21T05:31:47.376Z,1017.34
2017-07-21T05:32:48.266Z,1017.34
2017-07-21T05:33:48.899Z,1017.32
2017-07-21T05:34:49.532Z,1017.38
2017-07-21T05:35:50.173Z,1017.36
2017-07-21T05:36:50.809Z,1017.40
2017-07-21T05:37:51.448Z,1017.34
2017-07-21T05:38:52.079Z,1017.32
2017-07-21T05:39:52.713Z,1017.29
2017-07-21T05:40:53.700Z,1017.40
2017-07-21T05:41:54.343Z,1017.29
2017-07-21T05:42:54.973Z,1017.41
2017-07-21T05:43:55.613Z,1017.35
2017-07-21T05:44:56.246Z,1017.40
2017-07-21T05:45:56.881Z,1017.41
2017-07-21T05:46:57.516Z,1017.37
2017-07-21T05:47:58.151Z,1017.40
2017-07-21T05:48:59.042Z,1017.41
2017-07-21T05:49:59.679Z,1017.33
2017-07-21T05:51:00.315Z,1017.36
2017-07-21T05:52:00.945Z,1017.37
2017-07-21T05:53:01.582Z,1017.41
2017-07-21T05:54:02.222Z,1017.34
2017-07-21T05:55:02.861Z,1017.40
2017-07-21T05:56:03.495Z,1017.39
2017-07-21T05:57:04.131Z,1017.37
2017-07-21T05:58:04.965Z,1017.34
2017-07-21T05:59:05.600Z,1017.40
2017-07-21T06:00:06.236Z,1017.32
2017-07-21T06:01:06.872Z,1017.33
2017-07-21T06:02:07.512Z,1017.39
2017-07-21T06:03:08.150Z,1017.29
2017-07-21T06:04:08.786Z,1017.32
2017-07-21T06:05:09.421Z,1017.34
2017-07-21T06:06:10.263Z,1017.30
2017-07-21T06:07:10.894Z,1017.38
2017-07-21T06:08:11.528Z,1017.30
2017-07-21T06:09:12.168Z,1017.41
2017-07-21T06:10:12.801Z,1017.39
2017-07-21T06:11:13.442Z,1017.44
2017-07-21T06:12:14.074Z,1017.45
2017-07-21T06:13:14.706Z,1017.42
2017-07-21T06:14:15.549Z,1017.48
2017-07-21T06:15:16.181Z,1017.42
2017-07-21T06:16:16.816Z,1017.42
2017-07-21T06:17:17.463Z,1017.48
2017-07-21T06:18:18.098Z,1017.51
2017-07-21T06:19:18.735Z,1017.49
2017-07-21T06:20:19.368Z,1017.45
2017-07-21T06:21:20.003Z,1017.44
2017-07-21T06:22:20.842Z,1017.45
2017-07-21T06:23:21.476Z,1017.44
2017-07-21T06:24:22.121Z,1017.47
2017-07-21T06:25:22.755Z,1017.50
2017-07-21T06:26:23.391Z,1017.49
2017-07-21T06:27:24.026Z,1017.47
2017-07-21T06:28:24.666Z,1017.51
2017-07-21T06:29:25.303Z,1017.55
2017-07-21T06:30:26.135Z,1017.56
2017-07-21T06:31:26.778Z,1017.58
2017-07-21T06:32:27.464Z,1017.55
2017-07-21T06:33:28.100Z,1017.56
2017-07-21T06:34:28.735Z,1017.56
2017-07-21T06:35:29.369Z,1017.63
2017-07-21T06:36:30.003Z,1017.66
2017-07-21T06:37:30.644Z,1017.67
2017-07-21T06:38:31.275Z,1017.65
2017-07-21T06:39:32.113Z,1017.70
2017-07-21T06:40:32.748Z,1017.70
2017-07-21T06:41:33.380Z,1017.70
2017-07-21T06:42:34.073Z,1017.68
2017-07-21T06:43:34.707Z,1017.67
2017-07-21T06:44:35.340Z,1017.63
2017-07-21T06:45:35.985Z,1017.71
2017-07-21T06:46:36.626Z,1017.66
2017-07-21T06:47:37.455Z,1017.70
2017-07-21T06:48:38.088Z,1017.73
2017-07-21T06:49:38.732Z,1017.67
2017-07-21T06:50:39.374Z,1017.71
2017-07-21T06:51:40.003Z,1017.77
2017-07-21T06:52:40.648Z,1017.73
2017-07-21T06:53:41.277Z,1017.75
2017-07-21T06:54:41.919Z,1017.74
2017-07-21T06:55:42.751Z,1017.77
2017-07-21T06:56:43.392Z,1017.84
2017-07-21T06:57:44.027Z,1017.78
2017-07-21T06:58:44.660Z,1017.79
2017-07-21T06:59:45.295Z,1017.77
2017-07-21T07:00:45.930Z,1017.76
2017-07-21T07:01:46.576Z,1017.82
2017-07-21T07:02:47.208Z,1017.79
2017-07-21T07:03:48.045Z,1017.82
2017-07-21T07:04:48.682Z,1017.81
2017-07-21T07:05:49.375Z,1017.81
2017-07-21T07:06:50.012Z,1017.85
2017-07-21T07:07:50.649Z,1017.85
2017-07-21T07:08:51.287Z,1017.81
2017-07-21T07:09:51.925Z,1017.85
2017-07-21T07:10:52.561Z,1017.88
2017-07-21T07:11:53.201Z,1017.84
2017-07-21T07:12:54.039Z,1017.82
2017-07-21T07:13:54.669Z,1017.83
2017-07-21T07:14:55.310Z,1017.80
2017-07-21T07:15:55.940Z,1017.87
2017-07-21T07:16:56.575Z,1017.88
2017-07-21T07:17:57.211Z,1017.91
2017-07-21T07:18:57.843Z,1017.86
2017-07-21T07:19:58.480Z,1017.86
2017-07-21T07:20:59.314Z,1017.81
2017-07-21T07:21:59.957Z,1017.80
2017-07-21T07:23:00.586Z,1017.89
2017-07-21T07:24:01.223Z,1017.86
2017-07-21T07:25:01.863Z,1017.86
2017-07-21T07:26:02.500Z,1017.90
2017-07-21T07:27:03.137Z,1017.92
2017-07-21T07:28:03.768Z,1017.90
2017-07-21T07:29:04.606Z,1017.95
2017-07-21T07:30:05.246Z,1017.96
2017-07-21T07:31:05.883Z,1017.98
2017-07-21T07:32:06.520Z,1018.07
2017-07-21T07:33:07.158Z,1017.96
2017-07-21T07:34:07.792Z,1017.97
2017-07-21T07:35:08.432Z,1018.07
2017-07-21T07:36:09.069Z,1018.08
2017-07-21T07:37:10.109Z,1018.08
2017-07-21T07:38:10.740Z,1018.02
2017-07-21T07:39:11.376Z,1018.01
2017-07-21T07:40:12.011Z,1018.08
2017-07-21T07:41:12.645Z,1018.11
2017-07-21T07:42:13.281Z,1018.10
2017-07-21T07:43:13.917Z,1018.04
2017-07-21T07:44:14.559Z,1018.08
2017-07-21T07:45:15.390Z,1018.08
2017-07-21T07:46:16.024Z,1018.04
2017-07-21T07:47:16.660Z,1018.11
2017-07-21T07:48:17.295Z,1018.10
2017-07-21T07:49:17.931Z,1018.10
2017-07-21T07:50:18.568Z,1018.05
2017-07-21T07:51:19.198Z,1018.05
2017-07-21T07:52:19.841Z,1018.06
2017-07-21T07:53:20.479Z,1018.06
2017-07-21T07:54:21.267Z,1018.03
2017-07-21T07:55:21.901Z,1018.18
2017-07-21T07:56:22.533Z,1018.15
2017-07-21T07:57:23.172Z,1018.07
2017-07-21T07:58:23.812Z,1018.15
2017-07-21T07:59:24.445Z,1018.18
2017-07-21T08:00:25.079Z,1018.20
2017-07-21T08:01:25.713Z,1018.19
2017-07-21T08:02:26.755Z,1018.14
2017-07-21T08:03:27.390Z,1018.20
2017-07-21T08:04:28.030Z,1018.18
2017-07-21T08:05:28.668Z,1018.19
2017-07-21T08:06:29.306Z,1018.22
2017-07-21T08:07:29.948Z,1018.20
2017-07-21T08:08:30.590Z,1018.27
2017-07-21T08:09:31.227Z,1018.19
2017-07-21T08:10:32.119Z,1018.25
2017-07-21T08:11:32.750Z,1018.21
2017-07-21T08:12:33.390Z,1018.30
2017-07-21T08:13:34.024Z,1018.28
2017-07-21T08:14:34.664Z,1018.29
2017-07-21T08:15:35.312Z,1018.26
2017-07-21T08:16:35.949Z,1018.30
2017-07-21T08:17:36.593Z,1018.27
2017-07-21T08:18:37.373Z,1018.28
2017-07-21T08:19:38.011Z,1018.28
2017-07-21T08:20:38.649Z,1018.33
2017-07-21T08:21:39.291Z,1018.39
2017-07-21T08:22:39.922Z,1018.38
2017-07-21T08:23:40.551Z,1018.34
2017-07-21T08:24:41.194Z,1018.35
2017-07-21T08:25:41.826Z,1018.37
2017-07-21T08:26:42.459Z,1018.35
2017-07-21T08:27:43.295Z,1018.31
2017-07-21T08:28:43.930Z,1018.38
2017-07-21T08:29:44.566Z,1018.34
2017-07-21T08:30:45.201Z,1018.41
2017-07-21T08:31:45.840Z,1018.41
2017-07-21T08:32:46.478Z,1018.35
2017-07-21T08:33:47.112Z,1018.36
2017-07-21T08:34:47.750Z,1018.35
2017-07-21T08:35:48.591Z,1018.36
2017-07-21T08:36:49.227Z,1018.41
2017-07-21T08:37:49.871Z,1018.36
2017-07-21T08:38:50.501Z,1018.39
2017-07-21T08:39:51.135Z,1018.47
2017-07-21T08:40:51.772Z,1018.49
2017-07-21T08:41:52.407Z,1018.47
2017-07-21T08:42:53.043Z,1018.48
2017-07-21T08:43:54.029Z,1018.48
2017-07-21T08:44:54.662Z,1018.48
2017-07-21T08:45:55.300Z,1018.54
2017-07-21T08:46:55.935Z,1018.54
2017-07-21T08:47:56.569Z,1018.50
2017-07-21T08:48:57.211Z,1018.58
2017-07-21T08:49:57.849Z,1018.58
2017-07-21T08:50:58.484Z,1018.62
2017-07-21T08:51:59.319Z,1018.60
2017-07-21T08:52:59.962Z,1018.64
2017-07-21T08:54:00.598Z,1018.57
2017-07-21T08:55:01.231Z,1018.58
2017-07-21T08:56:01.876Z,1018.59
2017-07-21T08:57:02.507Z,1018.58
2017-07-21T08:58:03.144Z,1018.62
2017-07-21T08:59:03.785Z,1018.52
2017-07-21T09:00:04.728Z,1018.60
2017-07-21T09:01:05.369Z,1018.57
2017-07-21T09:02:06.001Z,1018.54
2017-07-21T09:03:06.635Z,1018.52
2017-07-21T09:04:07.270Z,1018.50
2017-07-21T09:05:07.960Z,1018.50
2017-07-21T09:06:08.594Z,1018.62
2017-07-21T09:07:09.231Z,1018.47
2017-07-21T09:08:09.872Z,1018.61
2017-07-21T09:09:10.656Z,1018.59
2017-07-21T09:10:11.292Z,1018.65
2017-07-21T09:11:11.943Z,1018.59
2017-07-21T09:12:12.574Z,1018.61
2017-07-21T09:13:13.217Z,1018.55
2017-07-21T09:14:13.859Z,1018.56
2017-07-21T09:15:14.489Z,1018.61
2017-07-21T09:16:15.123Z,1018.60
2017-07-21T09:17:15.959Z,1018.68
2017-07-21T09:18:16.601Z,1018.61
2017-07-21T09:19:17.238Z,1018.62
2017-07-21T09:20:17.882Z,1018.71
2017-07-21T09:21:18.514Z,1018.66
2017-07-21T09:22:19.157Z,1018.67
2017-07-21T09:23:19.795Z,1018.66
2017-07-21T09:24:20.427Z,1018.59
2017-07-21T09:25:21.512Z,1018.64
2017-07-21T09:26:22.147Z,1018.67
2017-07-21T09:27:22.782Z,1018.66
2017-07-21T09:28:23.421Z,1018.66
2017-07-21T09:29:24.061Z,1018.60
2017-07-21T09:30:24.695Z,1018.66
2017-07-21T09:31:25.329Z,1018.60
2017-07-21T09:32:25.966Z,1018.57
2017-07-21T09:33:26.901Z,1018.69
2017-07-21T09:34:27.537Z,1018.72
2017-07-21T09:35:28.171Z,1018.75
2017-07-21T09:36:28.810Z,1018.73
2017-07-21T09:37:29.448Z,1018.73
2017-07-21T09:38:30.082Z,1018.75
2017-07-21T09:39:30.718Z,1018.73
2017-07-21T09:40:31.362Z,1018.77
2017-07-21T09:41:32.000Z,1018.72
2017-07-21T09:42:32.787Z,1018.80
2017-07-21T09:43:33.426Z,1018.77
2017-07-21T09:44:34.058Z,1018.81
2017-07-21T09:45:34.692Z,1018.77
2017-07-21T09:46:35.336Z,1018.75
2017-07-21T09:47:35.976Z,1018.74
2017-07-21T09:48:36.607Z,1018.79
2017-07-21T09:49:37.250Z,1018.76
2017-07-21T09:50:38.081Z,1018.80
2017-07-21T09:51:38.719Z,1018.75
2017-07-21T09:52:39.354Z,1018.84
2017-07-21T09:53:39.991Z,1018.82
2017-07-21T09:54:40.634Z,1018.83
2017-07-21T09:55:41.268Z,1018.83
2017-07-21T09:56:41.954Z,1018.88
2017-07-21T09:57:42.590Z,1018.93
2017-07-21T09:58:43.433Z,1018.90
2017-07-21T09:59:44.064Z,1018.91
2017-07-21T10:00:44.706Z,1018.87
2017-07-21T10:01:45.337Z,1018.90
2017-07-21T10:02:45.973Z,1018.94
2017-07-21T10:03:46.613Z,1018.95
2017-07-21T10:04:47.251Z,1018.91
2017-07-21T10:05:47.891Z,1018.91
2017-07-21T10:06:48.976Z,1018.93
2017-07-21T10:07:49.617Z,1018.83
2017-07-21T10:08:50.248Z,1018.83
2017-07-21T10:09:50.886Z,1018.91
2017-07-21T10:10:51.522Z,1018.98
2017-07-21T10:11:52.158Z,1018.92
2017-07-21T10:12:52.796Z,1018.89
2017-07-21T10:13:53.431Z,1018.91
2017-07-21T10:14:54.266Z,1018.96
2017-07-21T10:15:54.907Z,1018.88
2017-07-21T10:16:55.547Z,1018.97
2017-07-21T10:17:56.187Z,1018.90
2017-07-21T10:18:56.825Z,1018.92
2017-07-21T10:19:57.457Z,1018.92
2017-07-21T10:20:58.093Z,1019.05
2017-07-21T10:21:58.727Z,1018.89
2017-07-21T10:22:59.366Z,1018.98
2017-07-21T10:24:00.208Z,1018.94
2017-07-21T10:25:00.846Z,1018.91
2017-07-21T10:26:01.481Z,1019.02
2017-07-21T10:27:02.123Z,1019.00
2017-07-21T10:28:02.767Z,1019.01
2017-07-21T10:29:03.403Z,1019.01
2017-07-21T10:30:04.035Z,1018.99
2017-07-21T10:31:04.670Z,1019.02
2017-07-21T10:32:05.458Z,1018.95
2017-07-21T10:33:06.095Z,1018.99
2017-07-21T10:34:06.745Z,1019.08
2017-07-21T10:35:07.427Z,1018.98
2017-07-21T10:36:08.062Z,1018.94
2017-07-21T10:37:08.698Z,1018.98
2017-07-21T10:38:09.334Z,1018.97
2017-07-21T10:39:09.979Z,1018.98
2017-07-21T10:40:10.921Z,1019.04
2017-07-21T10:41:11.614Z,1019.03
2017-07-21T10:42:12.245Z,1019.02
2017-07-21T10:43:12.880Z,1018.99
2017-07-21T10:44:13.528Z,1019.08
2017-07-21T10:45:14.166Z,1019.02
2017-07-21T10:46:14.807Z,1018.90
2017-07-21T10:47:15.445Z,1018.98
2017-07-21T10:48:16.230Z,1019.00
2017-07-21T10:49:16.867Z,1019.02
2017-07-21T10:50:17.502Z,1018.89
2017-07-21T10:51:18.143Z,1018.95
2017-07-21T10:52:18.778Z,1018.95
2017-07-21T10:53:19.413Z,1018.96
2017-07-21T10:54:20.051Z,1018.95
2017-07-21T10:55:20.689Z,1018.99
2017-07-21T10:56:21.374Z,1018.98
2017-07-21T10:57:22.218Z,1018.95
2017-07-21T10:58:22.855Z,1019.05
2017-07-21T10:59:23.540Z,1019.01
2017-07-21T11:00:24.180Z,1018.99
2017-07-21T11:01:24.814Z,1019.04
2017-07-21T11:02:25.468Z,1018.97
2017-07-21T11:03:26.088Z,1018.98
2017-07-21T11:04:26.727Z,1019.09
2017-07-21T11:05:27.565Z,1018.97
2017-07-21T11:06:28.200Z,1019.05
2017-07-21T11:07:28.842Z,1018.94
2017-07-21T11:08:29.489Z,1018.99
2017-07-21T11:09:30.126Z,1019.01
2017-07-21T11:10:30.762Z,1019.09
2017-07-21T11:11:31.401Z,1019.05
2017-07-21T11:12:32.035Z,1019.04
2017-07-21T11:13:32.974Z,1019.04
2017-07-21T11:14:33.611Z,1019.00
2017-07-21T11:15:34.253Z,1019.04
2017-07-21T11:16:34.891Z,1018.93
2017-07-21T11:17:35.526Z,1019.06
2017-07-21T11:18:36.169Z,1019.03
2017-07-21T11:19:36.801Z,1018.94
2017-07-21T11:20:37.449Z,1019.07
2017-07-21T11:21:38.291Z,1019.05
2017-07-21T11:22:38.928Z,1019.04
2017-07-21T11:23:39.562Z,1019.09
2017-07-21T11:24:40.198Z,1019.08
2017-07-21T11:25:40.840Z,1019.01
2017-07-21T11:26:41.474Z,1018.91
2017-07-21T11:27:42.115Z,1019.07
2017-07-21T11:28:42.749Z,1019.11
2017-07-21T11:29:43.393Z,1019.08
2017-07-21T11:30:44.279Z,1019.11
2017-07-21T11:31:44.919Z,1019.06
2017-07-21T11:32:45.552Z,1019.14
2017-07-21T11:33:46.191Z,1019.06
2017-07-21T11:34:46.831Z,1019.05
2017-07-21T11:35:47.413Z,1019.10
2017-07-21T11:36:48.055Z,1019.11
2017-07-21T11:37:48.691Z,1019.17
2017-07-21T11:38:49.675Z,1019.14
2017-07-21T11:39:50.313Z,1019.15
2017-07-21T11:40:50.950Z,1019.21
2017-07-21T11:41:51.587Z,1019.07
2017-07-21T11:42:52.229Z,1019.20
2017-07-21T11:43:52.865Z,1019.18
2017-07-21T11:44:53.510Z,1019.11
2017-07-21T11:45:54.143Z,1019.30
2017-07-21T11:46:54.935Z,1019.32
2017-07-21T11:47:55.567Z,1019.21
2017-07-21T11:48:56.216Z,1019.27
2017-07-21T11:49:56.856Z,1019.23
2017-07-21T11:50:57.487Z,1019.30
2017-07-21T11:51:58.128Z,1019.34
2017-07-21T11:52:58.762Z,1019.27
2017-07-21T11:53:59.398Z,1019.26
2017-07-21T11:55:00.337Z,1019.15
2017-07-21T11:56:00.978Z,1019.18
2017-07-21T11:57:01.622Z,1019.31
2017-07-21T11:58:02.261Z,1019.29
2017-07-21T11:59:02.899Z,1019.23
2017-07-21T12:00:03.533Z,1019.22
2017-07-21T12:01:04.171Z,1019.26
2017-07-21T12:02:04.809Z,1019.32
2017-07-21T12:03:05.594Z,1019.29
2017-07-21T12:04:06.236Z,1019.20
2017-07-21T12:05:06.871Z,1019.24
2017-07-21T12:06:07.513Z,1019.23
2017-07-21T12:07:08.146Z,1019.32
2017-07-21T12:08:08.782Z,1019.23
2017-07-21T12:09:09.418Z,1019.26
2017-07-21T12:10:10.062Z,1019.30
2017-07-21T12:11:10.694Z,1019.31
2017-07-21T12:12:11.543Z,1019.22
2017-07-21T12:13:12.181Z,1019.22
2017-07-21T12:14:12.814Z,1019.35
2017-07-21T12:15:13.459Z,1019.31
2017-07-21T12:16:14.153Z,1019.22
2017-07-21T12:17:14.789Z,1019.26
2017-07-21T12:18:15.429Z,1019.22
2017-07-21T12:19:16.071Z,1019.32
2017-07-21T12:20:16.860Z,1019.32
2017-07-21T12:21:17.499Z,1019.25
2017-07-21T12:22:18.141Z,1019.26
2017-07-21T12:23:18.772Z,1019.33
2017-07-21T12:24:19.418Z,1019.28
2017-07-21T12:25:20.060Z,1019.24
2017-07-21T12:26:20.700Z,1019.26
2017-07-21T12:27:21.337Z,1019.23
2017-07-21T12:28:22.174Z,1019.19
2017-07-21T12:29:22.809Z,1019.26
2017-07-21T12:30:23.451Z,1019.30
2017-07-21T12:31:24.085Z,1019.17
2017-07-21T12:32:24.722Z,1019.23
2017-07-21T12:33:25.365Z,1019.24
2017-07-21T12:34:26.006Z,1019.24
2017-07-21T12:35:26.644Z,1019.28
2017-07-21T12:36:27.436Z,1019.21
2017-07-21T12:37:28.088Z,1019.20
2017-07-21T12:38:28.707Z,1019.11
2017-07-21T12:39:29.351Z,1019.21
2017-07-21T12:40:29.984Z,1019.16
2017-07-21T12:41:30.622Z,1019.19
2017-07-21T12:42:31.261Z,1019.10
2017-07-21T12:43:31.898Z,1019.10
2017-07-21T12:44:32.536Z,1019.10
2017-07-21T12:45:33.374Z,1019.17
2017-07-21T12:46:34.019Z,1019.17
2017-07-21T12:47:34.657Z,1019.15
2017-07-21T12:48:35.296Z,1019.07